Time;durP1;ratioP1;P1;durP2;ratioP2;P2;SDS_P1;SDS_P2;PMS_P1;PMS_P2;Temp;Humidity;BMP_temperature;BMP_pressure;BME280_temperature;BME280_humidity;BME280_pressure;Samples;Min_cycle;Max_cycle;Signal;HPM_P1;HPM_P2
2021/11/17 02:25:50;;;;;;;22.08;12.26;;;;;;;2.67;100.00;96144.03;1034393;28;20029;-70
2021/11/17 02:26:39;;;;;;;24.15;13.20;;;;;;;2.67;100.00;96140.63;1030610;28;20041;-70
2021/11/17 02:27:44;;;;;;;20.58;12.46;;;;;;;2.64;100.00;96130.69;1034256;28;20030;-69
2021/11/17 02:28:26;;;;;;;20.08;12.92;;;;;;;2.67;100.00;96143.22;1033754;28;20038;-68
2021/11/17 02:29:05;;;;;;;22.60;13.38;;;;;;;2.68;100.00;96137.03;1034353;28;20026;-68
2021/11/17 02:29:48;;;;;;;22.88;12.76;;;;;;;2.70;100.00;96135.06;1035322;28;20386;-70
2021/11/17 02:30:44;;;;;;;28.00;13.04;;;;;;;2.70;100.00;96145.41;1042645;28;20119;-69
2021/11/17 02:31:39;;;;;;;19.32;12.72;;;;;;;2.71;100.00;96137.44;1038880;28;20511;-68
2021/11/17 02:32:29;;;;;;;22.50;13.68;;;;;;;2.69;100.00;96141.25;1035636;28;20052;-70
2021/11/17 02:33:31;;;;;;;21.62;12.94;;;;;;;2.52;100.00;96097.63;1035625;28;20030;-68
2021/11/17 02:34:24;;;;;;;21.38;12.84;;;;;;;2.70;100.00;96132.47;1043192;28;20116;-67
2021/11/17 02:35:07;;;;;;;20.56;12.58;;;;;;;2.71;100.00;96131.47;1032668;28;20022;-70
2021/11/17 02:36:08;;;;;;;22.20;12.56;;;;;;;2.69;100.00;96128.28;1034756;28;20548;-67
2021/11/17 02:36:51;;;;;;;19.36;12.56;;;;;;;2.66;100.00;96119.13;1032206;28;20038;-69
2021/11/17 02:37:46;;;;;;;21.58;12.12;;;;;;;2.69;100.00;96130.88;1034760;28;20487;-69
2021/11/17 02:38:16;;;;;;;19.92;12.52;;;;;;;2.69;100.00;96129.09;1036622;28;20471;-69
2021/11/17 02:39:11;;;;;;;20.73;13.18;;;;;;;2.70;100.00;96132.47;1034707;28;20029;-70
2021/11/17 02:39:53;;;;;;;21.86;12.22;;;;;;;2.70;100.00;96129.88;1038546;28;20551;-69
2021/11/17 02:41:01;;;;;;;23.20;13.02;;;;;;;2.75;100.00;96130.88;1039621;28;20029;-67
2021/11/17 02:41:49;;;;;;;19.25;12.15;;;;;;;2.72;100.00;96123.50;1039693;28;20496;-67
2021/11/17 02:42:36;;;;;;;21.08;11.90;;;;;;;2.74;100.00;96126.66;1042612;28;20805;-68
2021/11/17 02:43:22;;;;;;;21.54;11.14;;;;;;;2.78;100.00;96130.47;1034259;28;20033;-69
2021/11/17 02:44:14;;;;;;;23.20;12.50;;;;;;;2.70;100.00;96119.50;1034663;28;20018;-68
2021/11/17 02:44:53;;;;;;;20.32;11.70;;;;;;;2.77;100.00;96122.88;1027950;28;20629;-69
2021/11/17 02:45:49;;;;;;;22.90;13.06;;;;;;;2.78;100.00;96130.47;1034509;28;20053;-67
2021/11/17 02:47:01;;;;;;;24.10;13.30;;;;;;;2.77;100.00;96126.25;1033505;28;20030;-70
2021/11/17 02:47:39;;;;;;;21.50;12.08;;;;;;;2.75;100.00;96127.47;1033021;28;20437;-68
2021/11/17 02:48:29;;;;;;;20.88;11.70;;;;;;;2.80;100.00;96127.66;1038309;28;20104;-68
2021/11/17 02:49:00;;;;;;;19.52;12.52;;;;;;;2.76;100.00;96118.69;1038480;28;20381;-68
2021/11/17 02:49:39;;;;;;;25.33;13.80;;;;;;;2.75;100.00;96125.69;1038466;28;20020;-67
2021/11/17 02:50:39;;;;;;;22.55;13.13;;;;;;;2.78;100.00;96121.88;1036377;28;20026;-69
2021/11/17 02:51:34;;;;;;;20.30;12.38;;;;;;;2.76;100.00;96119.50;1042291;28;20255;-68
2021/11/17 02:52:07;;;;;;;20.42;11.80;;;;;;;2.76;100.00;96122.09;1037035;28;20029;-67
2021/11/17 02:53:10;;;;;;;22.77;13.18;;;;;;;2.75;100.00;96112.72;1038937;28;20484;-67
2021/11/17 02:54:02;;;;;;;20.68;12.54;;;;;;;2.75;100.00;96114.50;1033348;28;20265;-70
2021/11/17 02:54:54;;;;;;;22.58;13.16;;;;;;;2.75;100.00;96117.09;1034498;28;20030;-69
2021/11/17 02:55:49;;;;;;;19.96;12.18;;;;;;;2.77;100.00;96126.25;1031961;28;20379;-69
2021/11/17 02:56:44;;;;;;;20.83;12.85;;;;;;;2.75;100.00;96122.28;1036482;28;20528;-70
2021/11/17 02:57:57;;;;;;;20.88;12.90;;;;;;;2.74;100.00;96131.06;1045047;28;20255;-67
2021/11/17 02:58:37;;;;;;;23.70;12.18;;;;;;;2.77;100.00;96125.47;1042911;28;20013;-67
2021/11/17 02:59:37;;;;;;;20.77;12.63;;;;;;;2.74;100.00;96120.69;1044154;28;20033;-68
2021/11/17 03:00:26;;;;;;;21.88;12.27;;;;;;;2.73;100.00;96124.28;1034101;28;20117;-68
2021/11/17 03:00:59;;;;;;;24.04;13.00;;;;;;;2.79;100.00;96126.06;1034430;28;20259;-68
2021/11/17 03:01:41;;;;;;;20.96;12.82;;;;;;;2.75;100.00;96122.28;1034152;28;20022;-68
2021/11/17 03:02:33;;;;;;;18.42;11.90;;;;;;;2.75;100.00;96122.28;1035279;28;20033;-69
2021/11/17 03:03:12;;;;;;;20.76;12.74;;;;;;;2.73;100.00;96135.44;1034206;28;20022;-70
2021/11/17 03:03:54;;;;;;;21.82;12.02;;;;;;;2.68;100.00;96118.91;1034436;28;20018;-69
2021/11/17 03:04:30;;;;;;;20.85;12.73;;;;;;;2.72;100.00;96127.88;1030443;28;20022;-68
2021/11/17 03:05:15;;;;;;;18.17;11.55;;;;;;;2.72;100.00;96127.88;1034351;28;20712;-68
2021/11/17 03:06:11;;;;;;;17.52;10.88;;;;;;;2.76;100.00;96123.88;1031226;28;20254;-70
2021/11/17 03:06:57;;;;;;;19.28;10.94;;;;;;;2.76;100.00;96129.06;1032534;28;20034;-69
2021/11/17 03:07:31;;;;;;;16.42;11.22;;;;;;;2.75;100.00;96122.28;1031796;28;20037;-68
2021/11/17 03:08:30;;;;;;;17.14;11.78;;;;;;;2.77;100.00;96125.47;1034479;28;20048;-69
2021/11/17 03:09:13;;;;;;;21.38;11.50;;;;;;;2.78;100.00;96127.06;1034367;28;20035;-67
2021/11/17 03:09:54;;;;;;;18.70;11.40;;;;;;;2.77;100.00;96120.28;1030501;28;20113;-69
2021/11/17 03:10:28;;;;;;;;;;;;;;;2.79;100.00;96128.66;1030701;28;20332;-68
2021/11/17 03:11:24;;;;;;;20.18;11.56;;;;;;;2.76;100.00;96131.66;1029959;28;20699;-70
2021/11/17 03:12:19;;;;;;;19.34;11.10;;;;;;;2.78;100.00;96133.06;1029770;28;20042;-67
2021/11/17 03:13:05;;;;;;;18.66;12.10;;;;;;;2.76;100.00;96134.25;1032902;28;20556;-71
2021/11/17 03:13:35;;;;;;;19.50;11.60;;;;;;;2.74;100.00;96123.28;1030842;28;20616;-68
2021/11/17 03:14:27;;;;;;;18.92;12.13;;;;;;;2.77;100.00;96134.03;1034325;28;20034;-67
2021/11/17 03:15:13;;;;;;;18.30;11.54;;;;;;;2.42;100.00;96071.38;1042318;28;20025;-69
2021/11/17 03:16:01;;;;;;;19.90;12.06;;;;;;;2.78;100.00;96137.41;1031532;28;20026;-68
2021/11/17 03:16:48;;;;;;;19.52;12.26;;;;;;;2.76;100.00;96132.44;1025487;28;20617;-70
2021/11/17 03:17:49;;;;;;;21.34;12.14;;;;;;;2.79;100.00;96136.44;1026649;28;20089;-70
2021/11/17 03:18:41;;;;;;;20.46;12.52;;;;;;;2.80;100.00;96140.63;1032527;28;20069;-69
2021/11/17 03:19:23;;;;;;;21.34;12.82;;;;;;;2.81;100.00;96137.00;1037474;28;20029;-69
2021/11/17 03:20:07;;;;;;;20.20;12.10;;;;;;;2.75;100.00;96125.69;1040416;28;20033;-67
2021/11/17 03:20:52;;;;;;;21.17;12.48;;;;;;;2.78;100.00;96142.59;1034383;28;20655;-69
2021/11/17 03:22:04;;;;;;;18.48;12.22;;;;;;;2.80;100.00;96145.78;1025560;28;20258;-69
2021/11/17 03:22:50;;;;;;;18.30;11.38;;;;;;;2.79;100.00;96147.59;1031393;28;20034;-69
2021/11/17 03:23:29;;;;;;;21.82;13.14;;;;;;;2.81;100.00;96145.56;1034430;28;20017;-67
2021/11/17 03:24:12;;;;;;;18.88;11.25;;;;;;;2.81;100.00;96148.16;1031009;28;20035;-69
2021/11/17 03:25:13;;;;;;;19.25;12.10;;;;;;;2.81;100.00;96147.38;1034526;28;20355;-69
2021/11/17 03:26:04;;;;;;;21.48;12.43;;;;;;;2.83;100.00;96161.72;1035348;28;20256;-67
2021/11/17 03:26:35;;;;;;;22.77;12.70;;;;;;;2.80;100.00;96148.38;1038659;28;20017;-68
2021/11/17 03:27:18;;;;;;;20.35;12.30;;;;;;;2.80;100.00;96145.78;1033991;28;20268;-68
2021/11/17 03:28:00;;;;;;;20.42;12.60;;;;;;;2.82;100.00;96151.59;1034631;28;20121;-66
2021/11/17 03:29:04;;;;;;;19.95;12.68;;;;;;;2.80;100.00;96153.56;1030451;28;20258;-70
2021/11/17 03:29:55;;;;;;;20.88;13.07;;;;;;;2.83;100.00;96153.16;1032130;28;20281;-68
2021/11/17 03:30:52;;;;;;;20.33;12.00;;;;;;;2.81;100.00;96155.16;1030778;28;20288;-70
2021/11/17 03:31:40;;;;;;;22.13;13.07;;;;;;;2.77;100.00;96161.75;1036346;28;20273;-67
2021/11/17 03:32:16;;;;;;;20.45;12.43;;;;;;;2.78;100.00;96158.16;1035503;28;20295;-68
2021/11/17 03:33:10;;;;;;;19.45;11.48;;;;;;;2.80;100.00;96158.75;1038236;28;20319;-69
2021/11/17 03:33:52;;;;;;;22.65;12.13;;;;;;;2.76;100.00;96166.13;1038207;28;20264;-67
2021/11/17 03:34:41;;;;;;;19.38;12.38;;;;;;;2.77;100.00;96164.34;1038017;28;20276;-69
2021/11/17 03:35:36;;;;;;;21.42;12.60;;;;;;;2.77;100.00;96151.38;1046693;28;20274;-69
2021/11/17 03:36:12;;;;;;;19.58;12.16;;;;;;;2.79;100.00;96159.75;1040493;28;20037;-69
2021/11/17 03:37:02;;;;;;;19.60;11.43;;;;;;;2.78;100.00;96156.38;1038530;28;20072;-68
2021/11/17 03:37:41;;;;;;;20.70;12.74;;;;;;;2.80;100.00;96150.97;1030263;28;20265;-68
2021/11/17 03:38:18;;;;;;;18.86;12.58;;;;;;;2.81;100.00;96163.72;1026471;28;20038;-68
2021/11/17 03:39:14;;;;;;;21.13;12.73;;;;;;;2.80;100.00;96164.72;1031160;28;20739;-68
2021/11/17 03:39:53;;;;;;;20.73;12.45;;;;;;;2.85;100.00;96169.31;1035204;28;20260;-69
2021/11/17 03:40:37;;;;;;;18.84;11.96;;;;;;;2.84;100.00;96165.13;1042913;28;20625;-69
2021/11/17 03:41:26;;;;;;;21.00;12.80;;;;;;;2.84;100.00;96165.13;1035794;28;20077;-68
2021/11/17 03:42:18;;;;;;;20.54;12.46;;;;;;;2.84;100.00;96167.69;1037952;28;20252;-70
2021/11/17 03:43:07;;;;;;;22.36;13.50;;;;;;;2.84;100.00;96165.13;1042364;28;20047;-70
2021/11/17 03:44:24;;;;;;;19.95;12.05;;;;;;;2.82;100.00;96164.53;1046695;28;20056;-68
2021/11/17 03:45:16;;;;;;;21.26;12.32;;;;;;;2.76;100.00;96160.16;1030070;28;20908;-67
2021/11/17 03:46:08;;;;;;;22.68;12.68;;;;;;;2.74;100.00;96157.75;1034285;28;20036;-69
2021/11/17 03:46:39;;;;;;;19.64;12.22;;;;;;;2.74;100.00;96156.97;1032099;28;20026;-69
2021/11/17 03:47:27;;;;;;;22.23;13.52;;;;;;;2.78;100.00;96147.78;1034507;28;20382;-70
2021/11/17 03:48:19;;;;;;;21.67;12.68;;;;;;;2.75;100.00;96155.97;1040851;28;20029;-67
2021/11/17 03:49:04;;;;;;;23.08;12.98;;;;;;;2.78;100.00;96150.38;1038537;28;20256;-68
2021/11/17 03:50:20;;;;;;;21.36;12.46;;;;;;;2.77;100.00;96141.81;1038300;28;20038;-67
2021/11/17 03:50:59;;;;;;;20.50;12.26;;;;;;;2.75;100.00;96148.19;1034105;28;20506;-70
2021/11/17 03:51:49;;;;;;;21.75;13.00;;;;;;;2.76;100.00;96150.59;1042522;28;20020;-69
2021/11/17 03:52:34;;;;;;;21.68;13.40;;;;;;;2.75;100.00;96151.59;1042701;28;20719;-69
2021/11/17 03:53:23;;;;;;;20.60;12.76;;;;;;;2.74;100.00;96151.78;1039475;28;20139;-68
2021/11/17 03:54:19;;;;;;;23.48;13.04;;;;;;;2.72;100.00;96152.00;1038455;28;20523;-67
2021/11/17 03:54:49;;;;;;;23.76;12.90;;;;;;;2.72;100.00;96153.81;1028015;28;20023;-68
2021/11/17 03:55:44;;;;;;;20.58;12.90;;;;;;;2.71;100.00;96152.19;1030375;28;20659;-69
2021/11/17 03:56:20;;;;;;;22.54;13.28;;;;;;;2.72;100.00;96153.81;1026055;28;20023;-68
2021/11/17 03:57:06;;;;;;;21.02;12.94;;;;;;;2.74;100.00;96156.97;1035714;28;20034;-68
2021/11/17 03:57:54;;;;;;;21.96;12.64;;;;;;;2.75;100.00;96153.38;1034268;28;20030;-69
2021/11/17 03:58:34;;;;;;;20.76;12.66;;;;;;;2.75;100.00;96150.78;1033972;28;20028;-67
2021/11/17 03:59:10;;;;;;;26.38;14.04;;;;;;;2.75;100.00;96149.00;1034370;28;20509;-70
2021/11/17 03:59:46;;;;;;;25.08;13.82;;;;;;;2.75;100.00;96161.13;1038040;28;20022;-68
2021/11/17 04:00:23;;;;;;;21.38;13.16;;;;;;;2.73;100.00;96152.78;1033153;28;20025;-68
2021/11/17 04:01:20;;;;;;;20.48;13.02;;;;;;;2.75;100.00;96145.59;1034445;28;20106;-70
2021/11/17 04:02:09;;;;;;;21.52;12.78;;;;;;;2.77;100.00;96157.34;1038049;28;20275;-69
2021/11/17 04:03:08;;;;;;;24.32;12.82;;;;;;;2.76;100.00;96149.78;1042213;28;20124;-67
2021/11/17 04:04:12;;;;;;;19.08;11.76;;;;;;;2.75;100.00;96154.19;1042601;28;20029;-68
2021/11/17 04:05:21;;;;;;;19.84;11.44;;;;;;;2.72;100.00;96162.38;1034001;28;20030;-68
2021/11/17 04:06:09;;;;;;;19.86;12.20;;;;;;;2.71;100.00;96158.16;1021969;29;20109;-68
2021/11/17 04:06:42;;;;;;;21.06;11.92;;;;;;;2.74;100.00;96160.34;1033621;28;20025;-69
2021/11/17 04:07:34;;;;;;;21.18;12.60;;;;;;;2.71;100.00;96152.19;1042632;28;20597;-69
2021/11/17 04:08:17;;;;;;;20.76;12.28;;;;;;;2.73;100.00;96155.38;1038288;28;20120;-68
2021/11/17 04:08:50;;;;;;;18.20;11.62;;;;;;;2.73;100.00;96158.75;1034282;28;20064;-67
2021/11/17 04:09:59;;;;;;;19.04;12.22;;;;;;;2.71;100.00;96145.19;1026312;28;20033;-67
2021/11/17 04:10:54;;;;;;;18.08;11.86;;;;;;;2.74;100.00;96151.78;1022148;29;20187;-69
2021/11/17 04:12:06;;;;;;;18.08;11.48;;;;;;;2.75;100.00;96159.38;1025749;28;20037;-68
2021/11/17 04:12:42;;;;;;;18.80;11.70;;;;;;;2.75;100.00;96158.53;1018109;29;20039;-69
2021/11/17 04:13:49;;;;;;;19.30;12.16;;;;;;;2.76;100.00;96154.97;1033426;28;20070;-68
2021/11/17 04:14:20;;;;;;;19.44;11.94;;;;;;;2.77;100.00;96162.53;1032886;28;20509;-69
2021/11/17 04:15:08;;;;;;;18.90;11.80;;;;;;;2.78;100.00;96151.19;1032504;28;20030;-68
2021/11/17 04:16:06;;;;;;;18.88;11.94;;;;;;;2.77;100.00;96161.75;1026384;28;20034;-69
2021/11/17 04:16:58;;;;;;;19.46;11.86;;;;;;;2.76;100.00;96155.78;1025841;28;20569;-69
2021/11/17 04:17:43;;;;;;;19.26;11.64;;;;;;;2.74;100.00;96152.56;1031423;28;20053;-67
2021/11/17 04:18:50;;;;;;;19.64;11.64;;;;;;;2.80;100.00;96150.97;1035097;28;20033;-70
2021/11/17 04:19:43;;;;;;;19.06;11.80;;;;;;;2.81;100.00;96148.16;1034160;28;20096;-69
2021/11/17 04:20:36;;;;;;;20.26;12.30;;;;;;;2.76;100.00;96145.41;1039316;28;20453;-70
2021/11/17 04:21:25;;;;;;;19.72;12.62;;;;;;;2.79;100.00;96149.38;1032768;28;20655;-66
2021/11/17 04:22:07;;;;;;;20.84;12.52;;;;;;;2.82;100.00;96154.97;1035695;28;20029;-69
2021/11/17 04:23:06;;;;;;;18.86;11.98;;;;;;;2.84;100.00;96152.16;1032180;28;20030;-67
2021/11/17 04:24:04;;;;;;;21.14;12.88;;;;;;;2.79;100.00;96155.38;1037946;28;20075;-67
2021/11/17 04:24:56;;;;;;;20.54;12.90;;;;;;;2.77;100.00;96166.94;1036718;28;20037;-68
2021/11/17 04:25:59;;;;;;;22.14;12.20;;;;;;;2.77;100.00;96161.75;1030959;28;20076;-68
2021/11/17 04:26:29;;;;;;;20.40;12.40;;;;;;;2.74;100.00;96157.75;1024769;28;20258;-67
2021/11/17 04:27:27;;;;;;;20.75;12.60;;;;;;;2.77;100.00;96153.97;1035642;28;20053;-68
2021/11/17 04:27:58;;;;;;;19.06;12.62;;;;;;;2.77;100.00;96151.38;1039138;28;20477;-69
2021/11/17 04:28:37;;;;;;;20.98;12.35;;;;;;;2.77;100.00;96151.38;1039327;28;20033;-68
2021/11/17 04:29:58;;;;;;;22.50;13.00;;;;;;;2.76;100.00;96160.16;1042911;28;20040;-67
2021/11/17 04:31:07;;;;;;;20.15;12.30;;;;;;;2.79;100.00;96154.56;1023013;29;20106;-68
2021/11/17 04:32:10;;;;;;;21.48;12.68;;;;;;;2.79;100.00;96149.38;1043914;28;20021;-69
2021/11/17 04:32:41;;;;;;;27.10;12.98;;;;;;;2.81;100.00;96150.75;1029379;28;20033;-67
2021/11/17 04:33:14;;;;;;;23.58;13.27;;;;;;;2.82;100.00;96149.00;1034402;28;20080;-69
2021/11/17 04:34:11;;;;;;;22.40;12.82;;;;;;;2.76;100.00;96139.44;1032941;28;20522;-69
2021/11/17 04:34:44;;;;;;;21.34;11.84;;;;;;;2.77;100.00;96154.75;1035049;28;20162;-68
2021/11/17 04:35:22;;;;;;;20.68;12.46;;;;;;;2.77;100.00;96153.97;1033842;28;20121;-67
2021/11/17 04:36:07;;;;;;;24.44;13.86;;;;;;;2.76;100.00;96150.59;1035087;28;20026;-70
2021/11/17 04:37:22;;;;;;;21.42;13.28;;;;;;;2.79;100.00;96151.97;1044376;28;20052;-64
2021/11/17 04:38:14;;;;;;;23.74;14.04;;;;;;;2.72;100.00;96144.22;1046389;28;20024;-70
2021/11/17 04:38:58;;;;;;;24.66;13.18;;;;;;;2.76;100.00;96154.97;1044552;28;20021;-70
2021/11/17 04:39:47;;;;;;;25.88;14.58;;;;;;;2.68;100.00;96145.59;1044767;28;20080;-66
2021/11/17 04:40:46;;;;;;;23.54;14.56;;;;;;;2.76;100.00;96157.56;1046661;28;20018;-66
2021/11/17 04:41:44;;;;;;;23.02;13.30;;;;;;;2.77;100.00;96151.38;1050126;28;20499;-66
2021/11/17 04:42:40;;;;;;;21.26;12.62;;;;;;;2.81;100.00;96152.56;1042731;28;20025;-66
2021/11/17 04:43:20;;;;;;;24.88;13.64;;;;;;;2.80;100.00;96153.56;1039324;28;20472;-66
2021/11/17 04:44:27;;;;;;;21.88;12.76;;;;;;;2.80;100.00;96161.34;1042947;28;20036;-67
2021/11/17 04:45:08;;;;;;;22.76;13.42;;;;;;;2.79;100.00;96155.38;1045615;28;20564;-66
2021/11/17 04:45:47;;;;;;;21.44;13.96;;;;;;;2.78;100.00;96153.78;1045643;28;20032;-67
2021/11/17 04:46:18;;;;;;;19.40;13.04;;;;;;;2.81;100.00;96155.94;1037127;28;20102;-66
2021/11/17 04:47:19;;;;;;;22.05;13.57;;;;;;;2.79;100.00;96146.81;1036343;28;20021;-66
2021/11/17 04:48:21;;;;;;;22.95;13.35;;;;;;;2.82;100.00;96154.19;1031183;28;20093;-66
2021/11/17 04:49:18;;;;;;;20.96;12.48;;;;;;;2.82;100.00;96156.75;1036922;28;20541;-66
2021/11/17 04:50:03;;;;;;;20.70;12.26;;;;;;;2.84;100.00;96158.13;1031727;28;20022;-66
2021/11/17 04:50:55;;;;;;;21.60;12.84;;;;;;;2.57;100.00;96126.31;1042369;28;20020;-66
2021/11/17 04:51:44;;;;;;;22.08;12.80;;;;;;;2.80;100.00;96153.56;1043538;28;20017;-65
2021/11/17 04:52:55;;;;;;;21.32;12.70;;;;;;;2.75;100.00;96155.97;1045839;28;20103;-67
2021/11/17 04:53:35;;;;;;;21.35;12.70;;;;;;;2.78;100.00;96160.75;1043346;28;20013;-65
2021/11/17 04:54:29;;;;;;;20.40;12.65;;;;;;;2.80;100.00;96161.34;1043126;28;20082;-66
2021/11/17 04:55:36;;;;;;;21.42;12.88;;;;;;;2.80;100.00;96161.34;1039968;28;20060;-65
2021/11/17 04:56:29;;;;;;;19.80;12.50;;;;;;;2.80;100.00;96166.53;1039310;28;20032;-67
2021/11/17 04:57:19;;;;;;;21.78;12.74;;;;;;;2.80;100.00;96167.31;1042928;28;20070;-66
2021/11/17 04:57:52;;;;;;;18.78;11.98;;;;;;;2.80;100.00;96166.53;1043572;28;20207;-66
2021/11/17 04:58:31;;;;;;;18.36;12.04;;;;;;;2.81;100.00;96162.94;1039256;28;21011;-66
2021/11/17 04:59:27;;;;;;;18.46;12.44;;;;;;;2.80;100.00;96163.94;1039011;28;20026;-65
2021/11/17 05:00:25;;;;;;;20.44;13.12;;;;;;;2.80;100.00;96163.94;1043537;28;20599;-66
2021/11/17 05:01:08;;;;;;;22.78;13.22;;;;;;;2.82;100.00;96164.53;1043551;28;20021;-66
2021/11/17 05:02:00;;;;;;;23.50;12.42;;;;;;;2.83;100.00;96166.91;1043877;28;20032;-66
2021/11/17 05:02:52;;;;;;;23.24;13.52;;;;;;;2.83;100.00;96156.53;1046804;28;20027;-66
2021/11/17 05:03:49;;;;;;;24.22;13.42;;;;;;;2.80;100.00;96156.16;1047998;28;20108;-66
2021/11/17 05:04:59;;;;;;;18.80;12.12;;;;;;;2.86;100.00;96154.56;1043372;28;20013;-68
2021/11/17 05:05:48;;;;;;;20.80;12.14;;;;;;;2.87;100.00;96150.97;1047329;28;20017;-66
2021/11/17 05:06:34;;;;;;;18.16;11.76;;;;;;;2.83;100.00;96153.97;1047589;28;20025;-67
2021/11/17 05:07:57;;;;;;;17.46;11.10;;;;;;;2.88;100.00;96153.34;1052156;28;20442;-66
2021/11/17 05:08:46;;;;;;;17.10;11.06;;;;;;;2.86;100.00;96159.75;1035077;28;20030;-67
2021/11/17 05:09:35;;;;;;;19.48;11.75;;;;;;;2.86;100.00;96155.34;1034560;28;20193;-67
2021/11/17 05:10:17;;;;;;;21.56;12.52;;;;;;;2.82;100.00;96149.00;1031841;28;20689;-64
2021/11/17 05:11:00;;;;;;;18.86;11.76;;;;;;;2.86;100.00;96154.56;1034547;28;20505;-65
2021/11/17 05:11:48;;;;;;;19.70;12.05;;;;;;;2.87;100.00;96151.75;1031130;28;20628;-65
2021/11/17 05:12:48;;;;;;;19.46;11.74;;;;;;;2.86;100.00;96155.34;1030611;28;20878;-63
2021/11/17 05:13:40;;;;;;;17.78;11.74;;;;;;;2.83;100.00;96151.38;1022569;29;20019;-66
2021/11/17 05:14:25;;;;;;;18.40;11.98;;;;;;;2.85;100.00;96153.78;1033454;28;20031;-66
2021/11/17 05:15:19;;;;;;;19.90;12.90;;;;;;;2.83;100.00;96150.56;1036066;28;20257;-66
2021/11/17 05:16:04;;;;;;;19.56;12.62;;;;;;;2.82;100.00;96151.59;1032420;28;20065;-66
2021/11/17 05:16:38;;;;;;;22.35;13.55;;;;;;;2.82;100.00;96159.34;1038284;28;20025;-67
2021/11/17 05:17:27;;;;;;;21.40;13.43;;;;;;;2.84;100.00;96160.72;1039227;28;20283;-66
2021/11/17 05:18:24;;;;;;;20.24;12.68;;;;;;;2.76;100.00;96152.38;1047715;28;20235;-65
2021/11/17 05:19:09;;;;;;;21.82;13.52;;;;;;;2.81;100.00;96162.94;1043416;28;20067;-66
2021/11/17 05:19:57;;;;;;;19.36;13.60;;;;;;;2.81;100.00;96162.94;1043287;28;20469;-66
2021/11/17 05:20:58;;;;;;;18.98;12.56;;;;;;;2.81;100.00;96165.50;1040714;28;20020;-66
2021/11/17 05:21:38;;;;;;;21.27;13.32;;;;;;;2.81;100.00;96162.94;1039279;28;20068;-65
2021/11/17 05:22:47;;;;;;;21.05;13.13;;;;;;;2.82;100.00;96161.94;1040331;28;20105;-66
2021/11/17 05:23:52;;;;;;;20.10;12.20;;;;;;;2.83;100.00;96172.09;1019765;28;20034;-64
2021/11/17 05:24:32;;;;;;;24.26;13.56;;;;;;;2.82;100.00;96169.72;1038439;28;20531;-66
2021/11/17 05:25:30;;;;;;;21.92;12.74;;;;;;;2.84;100.00;96170.28;1039568;28;20057;-66
2021/11/17 05:26:30;;;;;;;20.68;13.26;;;;;;;2.80;100.00;96169.13;1035878;28;20132;-66
2021/11/17 05:27:56;;;;;;;20.84;12.32;;;;;;;2.81;100.00;96162.94;1037020;28;20803;-65
2021/11/17 05:28:51;;;;;;;21.04;12.44;;;;;;;2.78;100.00;96169.34;1041203;28;20125;-66
2021/11/17 05:29:50;;;;;;;20.40;12.22;;;;;;;2.76;100.00;96166.13;1039574;28;20083;-65
2021/11/17 05:30:44;;;;;;;19.36;12.56;;;;;;;2.72;100.00;96164.16;1038903;28;20022;-66
2021/11/17 05:31:35;;;;;;;23.96;12.72;;;;;;;2.73;100.00;96166.53;1037907;28;20056;-66
2021/11/17 05:32:30;;;;;;;20.18;12.42;;;;;;;2.72;100.00;96162.38;1036530;28;20270;-67
2021/11/17 05:33:13;;;;;;;23.56;13.78;;;;;;;2.64;100.00;96157.38;1038845;28;20404;-66
2021/11/17 05:34:20;;;;;;;20.92;12.54;;;;;;;2.70;100.00;96166.94;1037287;28;20034;-66
2021/11/17 05:35:09;;;;;;;23.74;12.68;;;;;;;2.74;100.00;96164.75;1045131;28;20016;-66
2021/11/17 05:36:15;;;;;;;21.14;12.90;;;;;;;2.63;100.00;96155.78;1047551;28;20067;-65
2021/11/17 05:36:48;;;;;;;23.22;12.96;;;;;;;2.75;100.00;96179.28;1045051;28;20039;-64
2021/11/17 05:37:33;;;;;;;22.32;13.74;;;;;;;2.74;100.00;96172.50;1044954;28;20288;-63
2021/11/17 05:38:22;;;;;;;26.83;14.20;;;;;;;2.73;100.00;96171.72;1041172;28;20477;-65
2021/11/17 05:39:27;;;;;;;24.46;13.92;;;;;;;2.73;100.00;96176.09;1042915;28;20727;-65
2021/11/17 05:40:09;;;;;;;19.72;11.94;;;;;;;2.78;100.00;96173.69;1050270;28;20055;-65
2021/11/17 05:41:31;;;;;;;22.06;13.08;;;;;;;2.74;100.00;96168.13;1051705;28;20016;-65
2021/11/17 05:42:36;;;;;;;23.80;14.35;;;;;;;2.76;100.00;96176.50;1037771;28;20024;-64
2021/11/17 05:43:24;;;;;;;25.42;13.30;;;;;;;2.76;100.00;96178.31;1040736;28;20531;-65
2021/11/17 05:44:26;;;;;;;25.66;13.56;;;;;;;2.74;100.00;96177.69;1046645;28;20496;-65
2021/11/17 05:45:31;;;;;;;24.56;13.00;;;;;;;2.72;100.00;96174.53;1047473;28;20021;-66
2021/11/17 05:46:22;;;;;;;23.28;13.52;;;;;;;2.70;100.00;96174.72;1042944;28;20091;-65
2021/11/17 05:47:17;;;;;;;24.17;12.60;;;;;;;2.69;100.00;96175.72;1038564;28;20488;-65
2021/11/17 05:48:32;;;;;;;20.90;12.24;;;;;;;2.69;100.00;96175.72;1040527;28;20108;-65
2021/11/17 05:49:27;;;;;;;23.36;12.86;;;;;;;2.71;100.00;96175.50;1044568;28;20016;-65
2021/11/17 05:50:15;;;;;;;21.02;12.46;;;;;;;2.69;100.00;96174.94;1042943;28;20021;-65
2021/11/17 05:51:06;;;;;;;24.12;13.34;;;;;;;2.69;100.00;96180.91;1046777;28;20023;-65
2021/11/17 05:52:05;;;;;;;21.20;13.38;;;;;;;2.69;100.00;96175.72;1029856;28;20336;-67
2021/11/17 05:52:56;;;;;;;24.02;13.44;;;;;;;2.70;100.00;96163.56;1036949;28;20029;-65
2021/11/17 05:53:55;;;;;;;21.58;12.74;;;;;;;2.68;100.00;96168.91;1041662;28;20064;-66
2021/11/17 05:54:50;;;;;;;22.74;12.92;;;;;;;2.70;100.00;96171.31;1041819;28;20014;-65
2021/11/17 05:55:39;;;;;;;22.90;12.68;;;;;;;2.71;100.00;96173.69;1047076;28;20024;-65
2021/11/17 05:56:16;;;;;;;22.86;13.78;;;;;;;2.75;100.00;96169.72;1045798;28;20447;-65
2021/11/17 05:57:01;;;;;;;21.52;12.80;;;;;;;2.74;100.00;96173.31;1038855;28;20029;-65
2021/11/17 05:58:03;;;;;;;23.38;12.88;;;;;;;2.73;100.00;96176.09;1037597;28;20503;-62
2021/11/17 05:58:43;;;;;;;;;;;;;;;2.77;100.00;96174.69;1045897;28;20020;-66
2021/11/17 05:59:17;;;;;;;24.83;13.13;;;;;;;2.75;100.00;96180.09;1043506;28;20396;-65
2021/11/17 06:00:16;;;;;;;21.98;12.85;;;;;;;2.75;100.00;96174.09;1041803;28;20021;-64
2021/11/17 06:01:10;;;;;;;19.66;12.30;;;;;;;2.75;100.00;96174.09;1043847;28;20923;-65
2021/11/17 06:02:01;;;;;;;21.90;12.66;;;;;;;2.68;100.00;96168.91;1030351;28;20089;-65
2021/11/17 06:02:41;;;;;;;21.70;12.66;;;;;;;2.78;100.00;96177.09;1035791;28;20034;-66
2021/11/17 06:03:32;;;;;;;23.58;12.70;;;;;;;2.77;100.00;96182.47;1045007;28;20029;-65
2021/11/17 06:04:04;;;;;;;;;;;;;;;2.73;100.00;96178.69;1041215;28;20021;-65
2021/11/17 06:04:34;;;;;;;20.34;11.02;;;;;;;2.71;100.00;96172.91;1043744;28;20307;-62
2021/11/17 06:05:04;;;;;;;21.98;12.05;;;;;;;2.73;100.00;96182.09;1043178;28;20025;-65
2021/11/17 06:05:34;;;;;;;22.65;12.02;;;;;;;2.72;100.00;96180.50;1042854;28;20009;-64
2021/11/17 06:06:05;;;;;;;23.10;11.82;;;;;;;2.72;100.00;96180.50;1048252;28;20145;-65
2021/11/17 06:06:39;;;;;;;22.48;12.75;;;;;;;2.72;100.00;96174.53;1047375;28;20062;-65
2021/11/17 06:07:09;;;;;;;24.27;12.80;;;;;;;2.73;100.00;96181.28;1038984;28;20112;-66
2021/11/17 06:07:39;;;;;;;19.55;12.00;;;;;;;2.73;100.00;96176.91;1042887;28;20252;-66
2021/11/17 06:08:10;;;;;;;24.33;13.43;;;;;;;2.71;100.00;96178.88;1041978;28;20084;-65
2021/11/17 06:08:40;;;;;;;24.75;14.07;;;;;;;2.71;100.00;96184.06;1040232;28;20018;-63
2021/11/17 06:09:10;;;;;;;25.35;13.60;;;;;;;2.72;100.00;96180.50;1043425;28;20021;-64
2021/11/17 06:09:40;;;;;;;21.35;13.45;;;;;;;2.72;100.00;96174.53;1043015;28;20094;-62
2021/11/17 06:10:13;;;;;;;20.00;12.60;;;;;;;2.73;100.00;96176.09;1043614;28;20025;-65
2021/11/17 06:10:45;;;;;;;20.42;12.30;;;;;;;2.74;100.00;96188.06;1036155;28;20049;-65
2021/11/17 06:11:19;;;;;;;20.96;12.74;;;;;;;2.76;100.00;96180.88;1034937;28;20029;-65
2021/11/17 06:11:55;;;;;;;24.66;12.90;;;;;;;2.75;100.00;96179.28;1034086;28;20511;-64